sensor_id;sensor_type;location;lat;lon;timestamp;P1;durP1;ratioP1;P2;durP2;ratioP2
72201;SDS011;60105;54.956;73.412;2023-07-20T00:00:34;12.20;;;8.20;;
72201;SDS011;60105;54.956;73.412;2023-07-20T00:03:35;12.32;;;9.18;;
72201;SDS011;60105;54.956;73.412;2023-07-20T00:06:37;15.67;;;8.57;;
72201;SDS011;60105;54.956;73.412;2023-07-20T00:09:41;13.70;;;8.95;;
72201;SDS011;60105;54.956;73.412;2023-07-20T00:12:43;18.20;;;11.05;;
72201;SDS011;60105;54.956;73.412;2023-07-20T00:15:48;15.85;;;9.75;;
72201;SDS011;60105;54.956;73.412;2023-07-20T00:18:50;15.43;;;9.30;;
72201;SDS011;60105;54.956;73.412;2023-07-20T00:22:25;13.88;;;9.77;;
72201;SDS011;60105;54.956;73.412;2023-07-20T00:25:27;15.13;;;10.10;;
72201;SDS011;60105;54.956;73.412;2023-07-20T00:28:28;12.90;;;9.20;;
72201;SDS011;60105;54.956;73.412;2023-07-20T00:31:30;16.63;;;9.10;;
72201;SDS011;60105;54.956;73.412;2023-07-20T00:34:32;13.15;;;9.80;;
72201;SDS011;60105;54.956;73.412;2023-07-20T00:37:34;18.60;;;9.02;;
72201;SDS011;60105;54.956;73.412;2023-07-20T00:40:39;14.83;;;9.10;;
72201;SDS011;60105;54.956;73.412;2023-07-20T00:43:40;14.23;;;9.07;;
72201;SDS011;60105;54.956;73.412;2023-07-20T00:47:26;16.44;;;9.01;;
72201;SDS011;60105;54.956;73.412;2023-07-20T00:50:28;14.53;;;9.73;;
72201;SDS011;60105;54.956;73.412;2023-07-20T00:53:30;16.70;;;10.10;;
72201;SDS011;60105;54.956;73.412;2023-07-20T00:56:31;14.40;;;9.90;;
72201;SDS011;60105;54.956;73.412;2023-07-20T00:59:36;15.27;;;11.10;;
72201;SDS011;60105;54.956;73.412;2023-07-20T01:02:38;15.13;;;9.57;;
72201;SDS011;60105;54.956;73.412;2023-07-20T01:05:51;20.43;;;10.70;;
72201;SDS011;60105;54.956;73.412;2023-07-20T01:15:29;15.50;;;9.57;;
72201;SDS011;60105;54.956;73.412;2023-07-20T01:18:30;14.93;;;9.20;;
72201;SDS011;60105;54.956;73.412;2023-07-20T01:21:34;16.67;;;10.00;;
72201;SDS011;60105;54.956;73.412;2023-07-20T01:28:14;16.95;;;10.00;;
72201;SDS011;60105;54.956;73.412;2023-07-20T01:31:37;11.77;;;9.70;;
72201;SDS011;60105;54.956;73.412;2023-07-20T01:34:40;20.20;;;10.13;;
72201;SDS011;60105;54.956;73.412;2023-07-20T01:37:43;14.13;;;9.93;;
72201;SDS011;60105;54.956;73.412;2023-07-20T01:40:46;15.77;;;9.67;;
72201;SDS011;60105;54.956;73.412;2023-07-20T01:43:49;18.63;;;9.87;;
72201;SDS011;60105;54.956;73.412;2023-07-20T01:47:25;19.45;;;10.38;;
72201;SDS011;60105;54.956;73.412;2023-07-20T01:50:27;24.30;;;10.55;;
72201;SDS011;60105;54.956;73.412;2023-07-20T01:53:28;17.98;;;9.93;;
72201;SDS011;60105;54.956;73.412;2023-07-20T01:56:30;16.73;;;10.80;;
72201;SDS011;60105;54.956;73.412;2023-07-20T01:59:31;17.20;;;10.47;;
72201;SDS011;60105;54.956;73.412;2023-07-20T02:02:32;15.02;;;8.52;;
72201;SDS011;60105;54.956;73.412;2023-07-20T02:05:34;16.52;;;8.45;;
72201;SDS011;60105;54.956;73.412;2023-07-20T02:08:35;16.33;;;9.02;;
72201;SDS011;60105;54.956;73.412;2023-07-20T02:11:36;15.83;;;10.57;;
72201;SDS011;60105;54.956;73.412;2023-07-20T02:14:38;17.50;;;10.20;;
72201;SDS011;60105;54.956;73.412;2023-07-20T02:17:40;18.67;;;9.63;;
72201;SDS011;60105;54.956;73.412;2023-07-20T02:21:02;19.30;;;9.70;;
72201;SDS011;60105;54.956;73.412;2023-07-20T02:24:03;17.70;;;9.80;;
72201;SDS011;60105;54.956;73.412;2023-07-20T02:30:27;16.70;;;9.13;;
72201;SDS011;60105;54.956;73.412;2023-07-20T02:33:29;20.23;;;11.23;;
72201;SDS011;60105;54.956;73.412;2023-07-20T02:36:31;18.90;;;10.43;;
72201;SDS011;60105;54.956;73.412;2023-07-20T02:39:33;19.13;;;9.32;;
72201;SDS011;60105;54.956;73.412;2023-07-20T02:42:35;19.00;;;8.07;;
72201;SDS011;60105;54.956;73.412;2023-07-20T02:45:39;22.03;;;9.77;;
72201;SDS011;60105;54.956;73.412;2023-07-20T02:48:41;33.45;;;14.52;;
72201;SDS011;60105;54.956;73.412;2023-07-20T02:52:25;34.76;;;14.69;;
72201;SDS011;60105;54.956;73.412;2023-07-20T02:55:27;38.78;;;15.65;;
72201;SDS011;60105;54.956;73.412;2023-07-20T02:58:28;45.90;;;15.90;;
72201;SDS011;60105;54.956;73.412;2023-07-20T03:01:31;29.58;;;13.30;;
72201;SDS011;60105;54.956;73.412;2023-07-20T03:04:32;37.40;;;15.03;;
72201;SDS011;60105;54.956;73.412;2023-07-20T03:07:33;42.80;;;15.60;;
72201;SDS011;60105;54.956;73.412;2023-07-20T03:10:38;29.87;;;12.63;;
72201;SDS011;60105;54.956;73.412;2023-07-20T03:13:44;17.17;;;8.93;;
72201;SDS011;60105;54.956;73.412;2023-07-20T03:17:25;16.04;;;7.44;;
72201;SDS011;60105;54.956;73.412;2023-07-20T03:20:27;14.73;;;6.72;;
72201;SDS011;60105;54.956;73.412;2023-07-20T03:23:28;15.57;;;7.70;;
72201;SDS011;60105;54.956;73.412;2023-07-20T03:26:30;15.93;;;7.03;;
72201;SDS011;60105;54.956;73.412;2023-07-20T03:29:31;15.30;;;7.90;;
72201;SDS011;60105;54.956;73.412;2023-07-20T03:32:34;16.95;;;7.65;;
72201;SDS011;60105;54.956;73.412;2023-07-20T03:35:36;14.07;;;5.73;;
72201;SDS011;60105;54.956;73.412;2023-07-20T03:38:38;12.47;;;5.87;;
72201;SDS011;60105;54.956;73.412;2023-07-20T03:41:40;11.43;;;5.50;;
72201;SDS011;60105;54.956;73.412;2023-07-20T03:44:41;13.57;;;5.82;;
72201;SDS011;60105;54.956;73.412;2023-07-20T03:47:42;11.17;;;5.43;;
72201;SDS011;60105;54.956;73.412;2023-07-20T03:50:46;11.35;;;5.22;;
72201;SDS011;60105;54.956;73.412;2023-07-20T03:53:48;10.10;;;5.83;;
72201;SDS011;60105;54.956;73.412;2023-07-20T03:57:25;10.55;;;5.15;;
72201;SDS011;60105;54.956;73.412;2023-07-20T04:00:27;11.25;;;4.90;;
72201;SDS011;60105;54.956;73.412;2023-07-20T04:03:28;13.03;;;5.33;;
72201;SDS011;60105;54.956;73.412;2023-07-20T04:06:30;8.03;;;4.73;;
72201;SDS011;60105;54.956;73.412;2023-07-20T04:09:31;13.65;;;4.90;;
72201;SDS011;60105;54.956;73.412;2023-07-20T04:12:33;7.97;;;4.20;;
72201;SDS011;60105;54.956;73.412;2023-07-20T04:15:34;12.68;;;4.78;;
72201;SDS011;60105;54.956;73.412;2023-07-20T04:18:36;7.90;;;4.10;;
72201;SDS011;60105;54.956;73.412;2023-07-20T04:21:39;11.48;;;4.35;;
72201;SDS011;60105;54.956;73.412;2023-07-20T04:24:42;8.60;;;4.50;;
72201;SDS011;60105;54.956;73.412;2023-07-20T04:27:44;7.97;;;4.20;;
72201;SDS011;60105;54.956;73.412;2023-07-20T04:30:48;10.03;;;4.10;;
72201;SDS011;60105;54.956;73.412;2023-07-20T04:33:50;7.65;;;3.03;;
72201;SDS011;60105;54.956;73.412;2023-07-20T04:36:54;5.50;;;3.60;;
72201;SDS011;60105;54.956;73.412;2023-07-20T04:39:57;6.43;;;3.07;;
72201;SDS011;60105;54.956;73.412;2023-07-20T04:42:58;8.90;;;3.70;;
72201;SDS011;60105;54.956;73.412;2023-07-20T04:46:00;5.65;;;3.42;;
72201;SDS011;60105;54.956;73.412;2023-07-20T04:49:05;7.73;;;3.83;;
72201;SDS011;60105;54.956;73.412;2023-07-20T04:52:25;7.80;;;3.90;;
72201;SDS011;60105;54.956;73.412;2023-07-20T04:55:27;5.30;;;2.87;;
72201;SDS011;60105;54.956;73.412;2023-07-20T04:58:29;5.68;;;2.83;;
72201;SDS011;60105;54.956;73.412;2023-07-20T05:01:31;5.45;;;3.08;;
72201;SDS011;60105;54.956;73.412;2023-07-20T05:04:32;5.60;;;3.00;;
72201;SDS011;60105;54.956;73.412;2023-07-20T05:07:33;5.88;;;2.33;;
72201;SDS011;60105;54.956;73.412;2023-07-20T05:10:35;7.88;;;2.88;;
72201;SDS011;60105;54.956;73.412;2023-07-20T05:13:36;4.50;;;2.43;;
72201;SDS011;60105;54.956;73.412;2023-07-20T05:16:38;5.28;;;2.85;;
72201;SDS011;60105;54.956;73.412;2023-07-20T05:19:41;6.97;;;3.13;;
72201;SDS011;60105;54.956;73.412;2023-07-20T05:22:43;6.07;;;2.20;;
72201;SDS011;60105;54.956;73.412;2023-07-20T05:25:44;6.72;;;2.25;;
72201;SDS011;60105;54.956;73.412;2023-07-20T05:28:45;6.55;;;2.90;;
72201;SDS011;60105;54.956;73.412;2023-07-20T05:32:25;9.00;;;2.60;;
72201;SDS011;60105;54.956;73.412;2023-07-20T05:35:27;5.07;;;2.75;;
72201;SDS011;60105;54.956;73.412;2023-07-20T05:38:28;7.37;;;2.50;;
72201;SDS011;60105;54.956;73.412;2023-07-20T05:41:36;6.00;;;2.50;;
72201;SDS011;60105;54.956;73.412;2023-07-20T05:44:37;7.87;;;2.33;;
72201;SDS011;60105;54.956;73.412;2023-07-20T05:47:39;5.65;;;2.40;;
72201;SDS011;60105;54.956;73.412;2023-07-20T05:50:41;9.23;;;2.50;;
72201;SDS011;60105;54.956;73.412;2023-07-20T05:53:46;6.25;;;1.83;;
72201;SDS011;60105;54.956;73.412;2023-07-20T05:57:25;5.10;;;1.77;;
72201;SDS011;60105;54.956;73.412;2023-07-20T06:00:27;5.57;;;2.37;;
72201;SDS011;60105;54.956;73.412;2023-07-20T06:03:28;10.43;;;2.17;;
72201;SDS011;60105;54.956;73.412;2023-07-20T06:06:30;10.52;;;2.33;;
72201;SDS011;60105;54.956;73.412;2023-07-20T06:09:31;7.60;;;1.63;;
72201;SDS011;60105;54.956;73.412;2023-07-20T06:12:32;2.47;;;0.93;;
72201;SDS011;60105;54.956;73.412;2023-07-20T06:15:35;5.33;;;1.80;;
72201;SDS011;60105;54.956;73.412;2023-07-20T06:18:37;4.90;;;2.30;;
72201;SDS011;60105;54.956;73.412;2023-07-20T06:21:39;6.57;;;2.30;;
72201;SDS011;60105;54.956;73.412;2023-07-20T06:24:40;5.10;;;1.98;;
72201;SDS011;60105;54.956;73.412;2023-07-20T06:27:42;5.10;;;2.13;;
72201;SDS011;60105;54.956;73.412;2023-07-20T06:30:44;5.50;;;2.10;;
72201;SDS011;60105;54.956;73.412;2023-07-20T06:33:45;5.90;;;2.60;;
72201;SDS011;60105;54.956;73.412;2023-07-20T06:36:54;4.82;;;1.90;;
72201;SDS011;60105;54.956;73.412;2023-07-20T06:39:55;7.37;;;2.33;;
72201;SDS011;60105;54.956;73.412;2023-07-20T06:42:56;3.90;;;1.80;;
72201;SDS011;60105;54.956;73.412;2023-07-20T06:45:59;8.27;;;1.80;;
72201;SDS011;60105;54.956;73.412;2023-07-20T06:49:00;4.50;;;1.85;;
72201;SDS011;60105;54.956;73.412;2023-07-20T06:55:26;5.30;;;2.50;;
72201;SDS011;60105;54.956;73.412;2023-07-20T06:58:28;5.10;;;2.20;;
72201;SDS011;60105;54.956;73.412;2023-07-20T07:01:29;7.95;;;2.75;;
72201;SDS011;60105;54.956;73.412;2023-07-20T07:04:31;6.67;;;2.10;;
72201;SDS011;60105;54.956;73.412;2023-07-20T07:07:33;8.07;;;2.28;;
72201;SDS011;60105;54.956;73.412;2023-07-20T07:10:35;5.23;;;2.13;;
72201;SDS011;60105;54.956;73.412;2023-07-20T07:13:43;5.32;;;2.35;;
72201;SDS011;60105;54.956;73.412;2023-07-20T07:17:25;7.22;;;2.28;;
72201;SDS011;60105;54.956;73.412;2023-07-20T07:20:27;6.00;;;1.90;;
72201;SDS011;60105;54.956;73.412;2023-07-20T07:23:28;5.18;;;2.28;;
72201;SDS011;60105;54.956;73.412;2023-07-20T07:26:29;6.17;;;2.90;;
72201;SDS011;60105;54.956;73.412;2023-07-20T07:29:31;6.47;;;2.60;;
72201;SDS011;60105;54.956;73.412;2023-07-20T07:32:32;4.70;;;2.13;;
72201;SDS011;60105;54.956;73.412;2023-07-20T07:35:34;7.65;;;2.25;;
72201;SDS011;60105;54.956;73.412;2023-07-20T07:38:35;8.40;;;2.27;;
72201;SDS011;60105;54.956;73.412;2023-07-20T07:41:37;4.18;;;2.10;;
72201;SDS011;60105;54.956;73.412;2023-07-20T07:44:38;5.75;;;2.10;;
72201;SDS011;60105;54.956;73.412;2023-07-20T07:47:40;3.90;;;1.67;;
72201;SDS011;60105;54.956;73.412;2023-07-20T07:50:41;7.85;;;2.20;;
72201;SDS011;60105;54.956;73.412;2023-07-20T07:53:43;4.78;;;2.00;;
72201;SDS011;60105;54.956;73.412;2023-07-20T07:57:25;5.33;;;2.25;;
72201;SDS011;60105;54.956;73.412;2023-07-20T08:00:27;5.53;;;1.95;;
72201;SDS011;60105;54.956;73.412;2023-07-20T08:03:28;6.22;;;2.05;;
72201;SDS011;60105;54.956;73.412;2023-07-20T08:06:29;6.13;;;1.90;;
72201;SDS011;60105;54.956;73.412;2023-07-20T08:09:32;5.15;;;2.40;;
72201;SDS011;60105;54.956;73.412;2023-07-20T08:12:33;5.93;;;2.47;;
72201;SDS011;60105;54.956;73.412;2023-07-20T08:15:35;4.75;;;2.58;;
72201;SDS011;60105;54.956;73.412;2023-07-20T08:18:37;6.60;;;2.43;;
72201;SDS011;60105;54.956;73.412;2023-07-20T08:21:38;5.53;;;2.55;;
72201;SDS011;60105;54.956;73.412;2023-07-20T08:24:40;6.15;;;2.55;;
72201;SDS011;60105;54.956;73.412;2023-07-20T08:27:41;9.90;;;2.23;;
72201;SDS011;60105;54.956;73.412;2023-07-20T08:30:44;5.30;;;2.00;;
72201;SDS011;60105;54.956;73.412;2023-07-20T08:33:46;6.17;;;2.33;;
72201;SDS011;60105;54.956;73.412;2023-07-20T08:36:54;5.97;;;2.10;;
72201;SDS011;60105;54.956;73.412;2023-07-20T08:39:55;7.25;;;2.30;;
72201;SDS011;60105;54.956;73.412;2023-07-20T08:43:02;5.87;;;2.00;;
72201;SDS011;60105;54.956;73.412;2023-07-20T08:46:23;4.53;;;2.08;;
72201;SDS011;60105;54.956;73.412;2023-07-20T08:49:27;5.27;;;2.10;;
72201;SDS011;60105;54.956;73.412;2023-07-20T08:52:28;2.60;;;1.00;;
72201;SDS011;60105;54.956;73.412;2023-07-20T08:55:30;6.40;;;1.73;;
72201;SDS011;60105;54.956;73.412;2023-07-20T08:58:32;5.32;;;2.33;;
72201;SDS011;60105;54.956;73.412;2023-07-20T09:01:36;6.57;;;2.15;;
72201;SDS011;60105;54.956;73.412;2023-07-20T09:04:40;4.73;;;1.87;;
72201;SDS011;60105;54.956;73.412;2023-07-20T09:07:41;5.80;;;2.60;;
72201;SDS011;60105;54.956;73.412;2023-07-20T09:10:47;4.65;;;2.30;;
72201;SDS011;60105;54.956;73.412;2023-07-20T09:13:48;6.28;;;2.05;;
72201;SDS011;60105;54.956;73.412;2023-07-20T09:20:27;7.90;;;2.50;;
72201;SDS011;60105;54.956;73.412;2023-07-20T09:23:32;6.17;;;2.53;;
72201;SDS011;60105;54.956;73.412;2023-07-20T09:26:41;5.78;;;2.22;;
72201;SDS011;60105;54.956;73.412;2023-07-20T09:29:49;6.20;;;2.77;;
72201;SDS011;60105;54.956;73.412;2023-07-20T09:32:55;6.93;;;2.37;;
72201;SDS011;60105;54.956;73.412;2023-07-20T09:36:01;7.72;;;2.50;;
72201;SDS011;60105;54.956;73.412;2023-07-20T09:39:04;12.47;;;2.47;;
72201;SDS011;60105;54.956;73.412;2023-07-20T09:45:30;7.03;;;2.33;;
72201;SDS011;60105;54.956;73.412;2023-07-20T09:48:34;5.40;;;2.53;;
72201;SDS011;60105;54.956;73.412;2023-07-20T09:51:35;5.57;;;2.55;;
72201;SDS011;60105;54.956;73.412;2023-07-20T09:54:38;6.05;;;2.60;;
72201;SDS011;60105;54.956;73.412;2023-07-20T09:57:39;5.20;;;2.57;;
72201;SDS011;60105;54.956;73.412;2023-07-20T10:00:41;7.00;;;2.78;;
72201;SDS011;60105;54.956;73.412;2023-07-20T10:03:53;5.67;;;2.37;;
72201;SDS011;60105;54.956;73.412;2023-07-20T10:06:57;6.69;;;2.77;;
72201;SDS011;60105;54.956;73.412;2023-07-20T10:10:01;5.00;;;2.33;;
72201;SDS011;60105;54.956;73.412;2023-07-20T10:13:05;5.38;;;2.63;;
72201;SDS011;60105;54.956;73.412;2023-07-20T10:16:35;8.32;;;2.90;;
72201;SDS011;60105;54.956;73.412;2023-07-20T10:19:49;6.53;;;2.40;;
72201;SDS011;60105;54.956;73.412;2023-07-20T10:22:53;7.85;;;2.75;;
72201;SDS011;60105;54.956;73.412;2023-07-20T10:25:55;5.93;;;2.42;;
72201;SDS011;60105;54.956;73.412;2023-07-20T10:28:59;4.40;;;2.30;;
72201;SDS011;60105;54.956;73.412;2023-07-20T10:32:25;2.80;;;1.50;;
72201;SDS011;60105;54.956;73.412;2023-07-20T10:35:27;5.57;;;2.33;;
72201;SDS011;60105;54.956;73.412;2023-07-20T10:42:25;5.55;;;2.25;;
72201;SDS011;60105;54.956;73.412;2023-07-20T10:45:35;5.22;;;2.35;;
72201;SDS011;60105;54.956;73.412;2023-07-20T10:49:04;5.72;;;2.33;;
72201;SDS011;60105;54.956;73.412;2023-07-20T10:55:26;6.63;;;2.65;;
72201;SDS011;60105;54.956;73.412;2023-07-20T10:58:28;8.10;;;2.50;;
72201;SDS011;60105;54.956;73.412;2023-07-20T11:01:30;5.45;;;2.78;;
72201;SDS011;60105;54.956;73.412;2023-07-20T11:04:41;6.17;;;2.80;;
72201;SDS011;60105;54.956;73.412;2023-07-20T11:07:53;8.40;;;2.83;;
72201;SDS011;60105;54.956;73.412;2023-07-20T11:11:20;10.68;;;3.38;;
72201;SDS011;60105;54.956;73.412;2023-07-20T11:14:28;10.70;;;3.13;;
72201;SDS011;60105;54.956;73.412;2023-07-20T11:17:32;15.70;;;3.05;;
72201;SDS011;60105;54.956;73.412;2023-07-20T11:20:34;11.38;;;2.85;;
72201;SDS011;60105;54.956;73.412;2023-07-20T11:23:42;7.60;;;2.70;;
72201;SDS011;60105;54.956;73.412;2023-07-20T11:27:25;7.50;;;3.10;;
72201;SDS011;60105;54.956;73.412;2023-07-20T11:30:32;6.90;;;2.63;;
72201;SDS011;60105;54.956;73.412;2023-07-20T11:33:34;7.63;;;2.50;;
72201;SDS011;60105;54.956;73.412;2023-07-20T11:36:35;7.50;;;2.70;;
72201;SDS011;60105;54.956;73.412;2023-07-20T11:39:37;7.22;;;2.70;;
72201;SDS011;60105;54.956;73.412;2023-07-20T11:42:41;5.43;;;2.80;;
72201;SDS011;60105;54.956;73.412;2023-07-20T11:45:42;6.13;;;2.83;;
72201;SDS011;60105;54.956;73.412;2023-07-20T11:48:45;5.60;;;2.78;;
72201;SDS011;60105;54.956;73.412;2023-07-20T11:52:25;10.30;;;3.05;;
72201;SDS011;60105;54.956;73.412;2023-07-20T11:55:28;6.63;;;2.40;;
72201;SDS011;60105;54.956;73.412;2023-07-20T11:58:30;6.50;;;2.30;;
72201;SDS011;60105;54.956;73.412;2023-07-20T12:01:31;7.53;;;2.60;;
72201;SDS011;60105;54.956;73.412;2023-07-20T12:04:34;7.93;;;2.33;;
72201;SDS011;60105;54.956;73.412;2023-07-20T12:07:38;4.67;;;2.70;;
72201;SDS011;60105;54.956;73.412;2023-07-20T12:10:40;9.57;;;2.53;;
72201;SDS011;60105;54.956;73.412;2023-07-20T12:13:45;10.20;;;2.42;;
72201;SDS011;60105;54.956;73.412;2023-07-20T12:17:25;7.80;;;2.65;;
72201;SDS011;60105;54.956;73.412;2023-07-20T12:20:27;6.13;;;2.80;;
72201;SDS011;60105;54.956;73.412;2023-07-20T12:23:39;7.43;;;2.73;;
72201;SDS011;60105;54.956;73.412;2023-07-20T12:27:27;7.95;;;2.90;;
72201;SDS011;60105;54.956;73.412;2023-07-20T12:30:29;5.63;;;2.92;;
72201;SDS011;60105;54.956;73.412;2023-07-20T12:33:30;8.30;;;2.55;;
72201;SDS011;60105;54.956;73.412;2023-07-20T12:36:31;5.40;;;2.63;;
72201;SDS011;60105;54.956;73.412;2023-07-20T12:39:33;5.70;;;2.63;;
72201;SDS011;60105;54.956;73.412;2023-07-20T12:42:34;5.88;;;2.28;;
72201;SDS011;60105;54.956;73.412;2023-07-20T12:45:36;9.47;;;2.93;;
72201;SDS011;60105;54.956;73.412;2023-07-20T12:48:37;9.68;;;3.15;;
72201;SDS011;60105;54.956;73.412;2023-07-20T12:51:38;7.20;;;2.80;;
72201;SDS011;60105;54.956;73.412;2023-07-20T12:54:40;5.20;;;2.63;;
72201;SDS011;60105;54.956;73.412;2023-07-20T12:57:41;11.10;;;3.05;;
72201;SDS011;60105;54.956;73.412;2023-07-20T13:00:43;8.03;;;3.00;;
72201;SDS011;60105;54.956;73.412;2023-07-20T13:03:44;6.40;;;2.65;;
72201;SDS011;60105;54.956;73.412;2023-07-20T13:06:54;18.00;;;3.67;;
72201;SDS011;60105;54.956;73.412;2023-07-20T13:09:55;8.60;;;3.65;;
72201;SDS011;60105;54.956;73.412;2023-07-20T13:12:56;5.90;;;3.13;;
72201;SDS011;60105;54.956;73.412;2023-07-20T13:15:58;8.90;;;3.03;;
72201;SDS011;60105;54.956;73.412;2023-07-20T13:18:59;8.27;;;2.90;;
72201;SDS011;60105;54.956;73.412;2023-07-20T13:25:26;9.18;;;3.00;;
72201;SDS011;60105;54.956;73.412;2023-07-20T13:28:29;7.68;;;2.80;;
72201;SDS011;60105;54.956;73.412;2023-07-20T13:31:31;7.43;;;2.63;;
72201;SDS011;60105;54.956;73.412;2023-07-20T13:34:32;6.35;;;2.80;;
72201;SDS011;60105;54.956;73.412;2023-07-20T13:37:34;8.20;;;2.30;;
72201;SDS011;60105;54.956;73.412;2023-07-20T13:40:35;6.80;;;2.45;;
72201;SDS011;60105;54.956;73.412;2023-07-20T13:43:37;6.27;;;2.90;;
72201;SDS011;60105;54.956;73.412;2023-07-20T13:46:39;8.60;;;3.20;;
72201;SDS011;60105;54.956;73.412;2023-07-20T13:49:41;7.23;;;3.00;;
72201;SDS011;60105;54.956;73.412;2023-07-20T13:52:42;6.25;;;2.70;;
72201;SDS011;60105;54.956;73.412;2023-07-20T13:55:43;9.90;;;2.70;;
72201;SDS011;60105;54.956;73.412;2023-07-20T13:58:45;8.07;;;4.00;;
72201;SDS011;60105;54.956;73.412;2023-07-20T14:02:25;9.20;;;4.07;;
72201;SDS011;60105;54.956;73.412;2023-07-20T14:05:27;7.47;;;3.73;;
72201;SDS011;60105;54.956;73.412;2023-07-20T14:08:29;10.57;;;3.95;;
72201;SDS011;60105;54.956;73.412;2023-07-20T14:11:30;9.10;;;3.45;;
72201;SDS011;60105;54.956;73.412;2023-07-20T14:14:32;7.13;;;3.50;;
72201;SDS011;60105;54.956;73.412;2023-07-20T14:17:33;7.25;;;2.63;;
72201;SDS011;60105;54.956;73.412;2023-07-20T14:20:34;11.82;;;4.40;;
72201;SDS011;60105;54.956;73.412;2023-07-20T14:23:36;11.10;;;5.20;;
72201;SDS011;60105;54.956;73.412;2023-07-20T14:26:37;8.82;;;4.60;;
72201;SDS011;60105;54.956;73.412;2023-07-20T14:29:50;7.93;;;3.33;;
72201;SDS011;60105;54.956;73.412;2023-07-20T14:32:52;8.53;;;3.63;;
72201;SDS011;60105;54.956;73.412;2023-07-20T14:35:53;8.57;;;3.25;;
72201;SDS011;60105;54.956;73.412;2023-07-20T14:38:55;5.97;;;3.00;;
72201;SDS011;60105;54.956;73.412;2023-07-20T14:42:25;7.95;;;3.13;;
72201;SDS011;60105;54.956;73.412;2023-07-20T14:45:27;8.48;;;2.90;;
72201;SDS011;60105;54.956;73.412;2023-07-20T14:48:28;9.90;;;3.65;;
72201;SDS011;60105;54.956;73.412;2023-07-20T14:51:30;7.55;;;3.63;;
72201;SDS011;60105;54.956;73.412;2023-07-20T14:54:34;10.00;;;3.60;;
72201;SDS011;60105;54.956;73.412;2023-07-20T14:57:36;9.68;;;3.05;;
72201;SDS011;60105;54.956;73.412;2023-07-20T15:00:38;12.15;;;3.30;;
72201;SDS011;60105;54.956;73.412;2023-07-20T15:03:39;9.10;;;3.70;;
72201;SDS011;60105;54.956;73.412;2023-07-20T15:06:41;15.63;;;4.13;;
72201;SDS011;60105;54.956;73.412;2023-07-20T15:09:42;9.70;;;5.10;;
72201;SDS011;60105;54.956;73.412;2023-07-20T15:12:43;13.27;;;4.33;;
72201;SDS011;60105;54.956;73.412;2023-07-20T15:15:45;8.50;;;4.65;;
72201;SDS011;60105;54.956;73.412;2023-07-20T15:18:46;10.40;;;4.70;;
72201;SDS011;60105;54.956;73.412;2023-07-20T15:22:25;10.60;;;5.00;;
72201;SDS011;60105;54.956;73.412;2023-07-20T15:25:26;16.65;;;5.78;;
72201;SDS011;60105;54.956;73.412;2023-07-20T15:28:30;12.10;;;6.03;;
72201;SDS011;60105;54.956;73.412;2023-07-20T15:31:31;13.00;;;6.10;;
72201;SDS011;60105;54.956;73.412;2023-07-20T15:34:33;12.45;;;5.30;;
72201;SDS011;60105;54.956;73.412;2023-07-20T15:37:34;17.93;;;6.30;;
72201;SDS011;60105;54.956;73.412;2023-07-20T15:40:37;11.48;;;5.22;;
72201;SDS011;60105;54.956;73.412;2023-07-20T15:43:43;11.57;;;5.03;;
72201;SDS011;60105;54.956;73.412;2023-07-20T15:47:25;15.17;;;5.48;;
72201;SDS011;60105;54.956;73.412;2023-07-20T15:50:26;9.50;;;4.77;;
72201;SDS011;60105;54.956;73.412;2023-07-20T15:53:28;8.75;;;5.32;;
72201;SDS011;60105;54.956;73.412;2023-07-20T15:56:29;12.30;;;5.10;;
72201;SDS011;60105;54.956;73.412;2023-07-20T15:59:30;9.37;;;5.33;;
72201;SDS011;60105;54.956;73.412;2023-07-20T16:02:32;8.55;;;4.55;;
72201;SDS011;60105;54.956;73.412;2023-07-20T16:05:34;11.47;;;4.87;;
72201;SDS011;60105;54.956;73.412;2023-07-20T16:08:36;13.70;;;4.87;;
72201;SDS011;60105;54.956;73.412;2023-07-20T16:11:37;9.90;;;4.90;;
72201;SDS011;60105;54.956;73.412;2023-07-20T16:14:39;12.40;;;4.78;;
72201;SDS011;60105;54.956;73.412;2023-07-20T16:17:40;9.03;;;4.83;;
72201;SDS011;60105;54.956;73.412;2023-07-20T16:20:41;15.47;;;5.80;;
72201;SDS011;60105;54.956;73.412;2023-07-20T16:23:43;9.60;;;4.50;;
72201;SDS011;60105;54.956;73.412;2023-07-20T16:27:24;12.28;;;5.08;;
72201;SDS011;60105;54.956;73.412;2023-07-20T16:30:27;14.88;;;5.97;;
72201;SDS011;60105;54.956;73.412;2023-07-20T16:33:29;12.33;;;5.97;;
72201;SDS011;60105;54.956;73.412;2023-07-20T16:36:30;10.80;;;5.45;;
72201;SDS011;60105;54.956;73.412;2023-07-20T16:39:34;11.07;;;5.10;;
72201;SDS011;60105;54.956;73.412;2023-07-20T16:42:41;9.87;;;4.80;;
72201;SDS011;60105;54.956;73.412;2023-07-20T16:45:43;8.10;;;4.63;;
72201;SDS011;60105;54.956;73.412;2023-07-20T16:48:45;10.57;;;4.20;;
72201;SDS011;60105;54.956;73.412;2023-07-20T16:52:25;10.45;;;4.18;;
72201;SDS011;60105;54.956;73.412;2023-07-20T16:55:27;7.80;;;3.80;;
72201;SDS011;60105;54.956;73.412;2023-07-20T16:58:28;6.77;;;4.00;;
72201;SDS011;60105;54.956;73.412;2023-07-20T17:01:31;10.85;;;4.50;;
72201;SDS011;60105;54.956;73.412;2023-07-20T17:04:47;8.85;;;4.22;;
72201;SDS011;60105;54.956;73.412;2023-07-20T17:07:48;11.37;;;4.10;;
72201;SDS011;60105;54.956;73.412;2023-07-20T17:10:55;7.80;;;3.70;;
72201;SDS011;60105;54.956;73.412;2023-07-20T17:13:57;7.25;;;3.38;;
72201;SDS011;60105;54.956;73.412;2023-07-20T17:17:25;18.55;;;4.95;;
72201;SDS011;60105;54.956;73.412;2023-07-20T17:20:26;9.70;;;4.70;;
72201;SDS011;60105;54.956;73.412;2023-07-20T17:23:30;9.07;;;4.38;;
72201;SDS011;60105;54.956;73.412;2023-07-20T17:26:32;15.63;;;5.27;;
72201;SDS011;60105;54.956;73.412;2023-07-20T17:29:34;9.23;;;4.32;;
72201;SDS011;60105;54.956;73.412;2023-07-20T17:32:36;11.00;;;4.70;;
72201;SDS011;60105;54.956;73.412;2023-07-20T17:35:37;9.73;;;5.28;;
72201;SDS011;60105;54.956;73.412;2023-07-20T17:38:39;8.43;;;4.32;;
72201;SDS011;60105;54.956;73.412;2023-07-20T17:41:40;9.17;;;4.67;;
72201;SDS011;60105;54.956;73.412;2023-07-20T17:44:42;11.27;;;4.85;;
72201;SDS011;60105;54.956;73.412;2023-07-20T17:47:44;9.83;;;4.83;;
72201;SDS011;60105;54.956;73.412;2023-07-20T17:50:48;10.25;;;5.00;;
72201;SDS011;60105;54.956;73.412;2023-07-20T17:53:49;11.10;;;5.47;;
72201;SDS011;60105;54.956;73.412;2023-07-20T17:57:25;10.57;;;6.05;;
72201;SDS011;60105;54.956;73.412;2023-07-20T18:00:27;14.93;;;6.10;;
72201;SDS011;60105;54.956;73.412;2023-07-20T18:03:28;10.93;;;5.37;;
72201;SDS011;60105;54.956;73.412;2023-07-20T18:06:30;9.70;;;5.63;;
72201;SDS011;60105;54.956;73.412;2023-07-20T18:09:31;10.07;;;4.77;;
72201;SDS011;60105;54.956;73.412;2023-07-20T18:12:32;11.53;;;5.23;;
72201;SDS011;60105;54.956;73.412;2023-07-20T18:15:34;11.00;;;6.25;;
72201;SDS011;60105;54.956;73.412;2023-07-20T18:18:35;10.07;;;5.17;;
72201;SDS011;60105;54.956;73.412;2023-07-20T18:21:37;12.32;;;5.78;;
72201;SDS011;60105;54.956;73.412;2023-07-20T18:24:38;14.63;;;6.33;;
72201;SDS011;60105;54.956;73.412;2023-07-20T18:27:39;15.80;;;6.07;;
72201;SDS011;60105;54.956;73.412;2023-07-20T18:30:41;12.68;;;4.97;;
72201;SDS011;60105;54.956;73.412;2023-07-20T18:33:43;12.50;;;4.90;;
72201;SDS011;60105;54.956;73.412;2023-07-20T18:36:54;12.96;;;5.14;;
72201;SDS011;60105;54.956;73.412;2023-07-20T18:39:55;9.50;;;4.63;;
72201;SDS011;60105;54.956;73.412;2023-07-20T18:42:56;8.00;;;4.57;;
72201;SDS011;60105;54.956;73.412;2023-07-20T18:45:58;8.25;;;4.32;;